sensor_id;sensor_type;location;lat;lon;timestamp;pressure;altitude;pressure_sealevel;temperature;humidity
27587;BME280;15019;49.002;8.420;2022-07-17T00:01:33;101056.38;;;19.93;50.45
27587;BME280;15019;49.002;8.420;2022-07-17T00:03:58;101051.06;;;19.99;50.84
27587;BME280;15019;49.002;8.420;2022-07-17T00:06:24;101066.75;;;19.90;50.83
27587;BME280;15019;49.002;8.420;2022-07-17T00:08:49;101053.31;;;19.79;51.38
27587;BME280;15019;49.002;8.420;2022-07-17T00:11:14;101054.28;;;19.75;51.67
27587;BME280;15019;49.002;8.420;2022-07-17T00:13:40;101054.41;;;19.70;51.79
27587;BME280;15019;49.002;8.420;2022-07-17T00:16:06;101055.75;;;19.50;54.34
27587;BME280;15019;49.002;8.420;2022-07-17T00:18:31;101056.47;;;19.19;56.76
27587;BME280;15019;49.002;8.420;2022-07-17T00:20:56;101048.88;;;19.15;57.64
27587;BME280;15019;49.002;8.420;2022-07-17T00:23:22;101051.47;;;19.13;58.11
27587;BME280;15019;49.002;8.420;2022-07-17T00:25:47;101053.19;;;19.14;58.18
27587;BME280;15019;49.002;8.420;2022-07-17T00:28:13;101048.03;;;19.14;58.23
27587;BME280;15019;49.002;8.420;2022-07-17T00:30:38;101044.88;;;19.03;58.41
27587;BME280;15019;49.002;8.420;2022-07-17T00:33:04;101044.66;;;19.12;58.11
27587;BME280;15019;49.002;8.420;2022-07-17T00:35:29;101047.06;;;19.18;57.63
27587;BME280;15019;49.002;8.420;2022-07-17T00:37:55;101052.97;;;19.23;57.45
27587;BME280;15019;49.002;8.420;2022-07-17T00:40:22;101047.88;;;19.20;57.70
27587;BME280;15019;49.002;8.420;2022-07-17T00:42:48;101054.78;;;19.18;57.49
27587;BME280;15019;49.002;8.420;2022-07-17T00:45:14;101053.19;;;19.14;57.82
27587;BME280;15019;49.002;8.420;2022-07-17T00:47:57;101058.66;;;18.99;58.14
27587;BME280;15019;49.002;8.420;2022-07-17T00:50:26;101058.44;;;19.08;57.24
27587;BME280;15019;49.002;8.420;2022-07-17T00:52:52;101053.66;;;18.93;58.39
27587;BME280;15019;49.002;8.420;2022-07-17T00:55:18;101057.16;;;18.89;58.11
27587;BME280;15019;49.002;8.420;2022-07-17T00:57:46;101055.63;;;18.82;58.34
27587;BME280;15019;49.002;8.420;2022-07-17T01:00:12;101048.63;;;18.87;58.68
27587;BME280;15019;49.002;8.420;2022-07-17T01:02:38;101052.78;;;18.94;57.90
27587;BME280;15019;49.002;8.420;2022-07-17T01:05:04;101053.72;;;18.90;58.49
27587;BME280;15019;49.002;8.420;2022-07-17T01:07:30;101057.22;;;18.86;59.63
27587;BME280;15019;49.002;8.420;2022-07-17T01:09:55;101057.31;;;18.83;59.95
27587;BME280;15019;49.002;8.420;2022-07-17T01:12:20;101055.63;;;18.82;59.97
27587;BME280;15019;49.002;8.420;2022-07-17T01:14:48;101045.47;;;18.76;59.80
27587;BME280;15019;49.002;8.420;2022-07-17T01:17:13;101043.22;;;18.62;60.74
27587;BME280;15019;49.002;8.420;2022-07-17T01:19:39;101048.63;;;18.47;61.57
27587;BME280;15019;49.002;8.420;2022-07-17T01:22:05;101042.56;;;18.49;61.08
27587;BME280;15019;49.002;8.420;2022-07-17T01:24:30;101041.81;;;18.44;61.51
27587;BME280;15019;49.002;8.420;2022-07-17T01:26:55;101045.16;;;18.49;61.04
27587;BME280;15019;49.002;8.420;2022-07-17T01:29:21;101035.75;;;18.48;60.81
27587;BME280;15019;49.002;8.420;2022-07-17T01:31:46;101036.66;;;18.46;60.31
27587;BME280;15019;49.002;8.420;2022-07-17T01:34:12;101036.78;;;18.40;60.52
27587;BME280;15019;49.002;8.420;2022-07-17T01:36:38;101034.25;;;18.38;61.19
27587;BME280;15019;49.002;8.420;2022-07-17T01:39:04;101040.16;;;18.43;61.15
27587;BME280;15019;49.002;8.420;2022-07-17T01:41:30;101036.00;;;18.36;61.89
27587;BME280;15019;49.002;8.420;2022-07-17T01:43:56;101035.56;;;18.14;63.54
27587;BME280;15019;49.002;8.420;2022-07-17T01:46:21;101038.28;;;18.07;65.29
27587;BME280;15019;49.002;8.420;2022-07-17T01:48:47;101040.34;;;17.89;66.37
27587;BME280;15019;49.002;8.420;2022-07-17T01:51:12;101039.03;;;17.67;67.96
27587;BME280;15019;49.002;8.420;2022-07-17T01:53:37;101035.63;;;17.62;68.77
27587;BME280;15019;49.002;8.420;2022-07-17T01:56:03;101042.75;;;17.48;69.63
27587;BME280;15019;49.002;8.420;2022-07-17T01:58:28;101039.28;;;17.49;69.79
27587;BME280;15019;49.002;8.420;2022-07-17T02:00:54;101040.19;;;17.46;69.71
27587;BME280;15019;49.002;8.420;2022-07-17T02:03:20;101045.47;;;17.37;70.67
27587;BME280;15019;49.002;8.420;2022-07-17T02:05:46;101040.41;;;17.33;70.76
27587;BME280;15019;49.002;8.420;2022-07-17T02:08:11;101041.28;;;17.32;71.64
27587;BME280;15019;49.002;8.420;2022-07-17T02:10:37;101036.19;;;17.29;71.38
27587;BME280;15019;49.002;8.420;2022-07-17T02:13:02;101043.13;;;17.24;71.83
27587;BME280;15019;49.002;8.420;2022-07-17T02:15:28;101041.56;;;17.13;72.27
27587;BME280;15019;49.002;8.420;2022-07-17T02:17:53;101036.47;;;17.10;72.63
27587;BME280;15019;49.002;8.420;2022-07-17T02:20:19;101034.75;;;17.12;72.98
27587;BME280;15019;49.002;8.420;2022-07-17T02:22:44;101028.97;;;16.98;75.10
27587;BME280;15019;49.002;8.420;2022-07-17T02:25:10;101030.69;;;16.96;75.21
27587;BME280;15019;49.002;8.420;2022-07-17T02:27:36;101019.84;;;16.79;75.45
27587;BME280;15019;49.002;8.420;2022-07-17T02:30:07;101026.13;;;16.54;76.87
27587;BME280;15019;49.002;8.420;2022-07-17T02:32:33;101021.84;;;16.56;76.95
27587;BME280;15019;49.002;8.420;2022-07-17T02:34:58;101023.66;;;16.49;77.36
27587;BME280;15019;49.002;8.420;2022-07-17T02:37:24;101025.34;;;16.48;77.25
27587;BME280;15019;49.002;8.420;2022-07-17T02:39:49;101021.94;;;16.48;77.80
27587;BME280;15019;49.002;8.420;2022-07-17T02:42:14;101018.63;;;16.41;77.87
27587;BME280;15019;49.002;8.420;2022-07-17T02:44:40;101017.00;;;16.34;78.28
27587;BME280;15019;49.002;8.420;2022-07-17T02:47:05;101010.16;;;16.33;78.19
27587;BME280;15019;49.002;8.420;2022-07-17T02:49:30;101011.94;;;16.31;78.91
27587;BME280;15019;49.002;8.420;2022-07-17T02:51:56;101017.03;;;16.31;78.29
27587;BME280;15019;49.002;8.420;2022-07-17T02:54:21;101007.59;;;16.35;78.52
27587;BME280;15019;49.002;8.420;2022-07-17T02:56:46;101015.22;;;16.39;78.61
27587;BME280;15019;49.002;8.420;2022-07-17T02:59:11;101011.00;;;16.35;78.26
27587;BME280;15019;49.002;8.420;2022-07-17T03:01:37;101008.47;;;16.32;78.99
27587;BME280;15019;49.002;8.420;2022-07-17T03:04:02;101022.19;;;16.28;78.82
27587;BME280;15019;49.002;8.420;2022-07-17T03:06:27;101010.31;;;16.21;79.27
27587;BME280;15019;49.002;8.420;2022-07-17T03:08:53;101011.16;;;16.22;79.71
27587;BME280;15019;49.002;8.420;2022-07-17T03:11:18;101007.09;;;16.04;80.89
27587;BME280;15019;49.002;8.420;2022-07-17T03:13:43;101007.97;;;16.01;81.37
27587;BME280;15019;49.002;8.420;2022-07-17T03:16:09;101003.06;;;15.85;82.67
27587;BME280;15019;49.002;8.420;2022-07-17T03:18:34;101009.81;;;15.90;82.02
27587;BME280;15019;49.002;8.420;2022-07-17T03:21:00;101004.78;;;15.84;82.50
27587;BME280;15019;49.002;8.420;2022-07-17T03:23:25;101012.41;;;15.89;82.44
27587;BME280;15019;49.002;8.420;2022-07-17T03:25:50;101015.00;;;15.83;82.57
27587;BME280;15019;49.002;8.420;2022-07-17T03:28:15;101016.81;;;15.70;83.30
27587;BME280;15019;49.002;8.420;2022-07-17T03:30:41;101018.59;;;15.65;83.18
27587;BME280;15019;49.002;8.420;2022-07-17T03:33:06;101013.56;;;15.53;84.29
27587;BME280;15019;49.002;8.420;2022-07-17T03:35:31;101024.66;;;15.56;84.08
27587;BME280;15019;49.002;8.420;2022-07-17T03:37:57;101021.22;;;15.51;84.72
27587;BME280;15019;49.002;8.420;2022-07-17T03:40:22;101023.00;;;15.46;85.36
27587;BME280;15019;49.002;8.420;2022-07-17T03:42:47;101017.06;;;15.39;85.35
27587;BME280;15019;49.002;8.420;2022-07-17T03:45:12;101018.84;;;15.30;85.45
27587;BME280;15019;49.002;8.420;2022-07-17T03:47:38;101018.00;;;15.28;86.32
27587;BME280;15019;49.002;8.420;2022-07-17T03:50:04;101017.16;;;15.27;86.26
27587;BME280;15019;49.002;8.420;2022-07-17T03:52:29;101028.28;;;15.22;86.15
27587;BME280;15019;49.002;8.420;2022-07-17T03:54:55;101022.28;;;15.27;86.14
27587;BME280;15019;49.002;8.420;2022-07-17T03:57:20;101026.53;;;15.27;85.83
27587;BME280;15019;49.002;8.420;2022-07-17T03:59:45;101023.19;;;15.22;86.47
27587;BME280;15019;49.002;8.420;2022-07-17T04:02:10;101041.91;;;15.25;86.76
27587;BME280;15019;49.002;8.420;2022-07-17T04:04:36;101037.59;;;15.27;86.64
27587;BME280;15019;49.002;8.420;2022-07-17T04:07:01;101033.38;;;15.25;86.47
27587;BME280;15019;49.002;8.420;2022-07-17T04:09:26;101032.53;;;15.24;86.54
27587;BME280;15019;49.002;8.420;2022-07-17T04:11:52;101038.53;;;15.19;86.66
27587;BME280;15019;49.002;8.420;2022-07-17T04:14:17;101036.88;;;15.15;86.26
27587;BME280;15019;49.002;8.420;2022-07-17T04:16:42;101040.31;;;15.05;87.09
27587;BME280;15019;49.002;8.420;2022-07-17T04:19:08;101043.75;;;15.04;87.35
27587;BME280;15019;49.002;8.420;2022-07-17T04:21:33;101057.34;;;15.06;86.53
27587;BME280;15019;49.002;8.420;2022-07-17T04:23:58;101048.88;;;14.94;87.66
27587;BME280;15019;49.002;8.420;2022-07-17T04:26:24;101048.03;;;14.97;87.30
27587;BME280;15019;49.002;8.420;2022-07-17T04:28:49;101042.91;;;15.01;87.21
27587;BME280;15019;49.002;8.420;2022-07-17T04:31:14;101047.13;;;15.06;87.02
27587;BME280;15019;49.002;8.420;2022-07-17T04:33:40;101053.06;;;15.12;86.19
27587;BME280;15019;49.002;8.420;2022-07-17T04:36:05;101046.19;;;15.22;85.87
27587;BME280;15019;49.002;8.420;2022-07-17T04:38:30;101046.16;;;15.23;85.25
27587;BME280;15019;49.002;8.420;2022-07-17T04:40:56;101043.63;;;15.22;85.47
27587;BME280;15019;49.002;8.420;2022-07-17T04:43:21;101054.63;;;15.31;85.52
27587;BME280;15019;49.002;8.420;2022-07-17T04:45:47;101048.66;;;15.31;84.65
27587;BME280;15019;49.002;8.420;2022-07-17T04:48:12;101048.66;;;15.34;84.27
27587;BME280;15019;49.002;8.420;2022-07-17T04:50:38;101041.75;;;15.45;83.75
27587;BME280;15019;49.002;8.420;2022-07-17T04:53:03;101044.31;;;15.45;83.75
27587;BME280;15019;49.002;8.420;2022-07-17T04:55:28;101051.94;;;15.54;84.21
27587;BME280;15019;49.002;8.420;2022-07-17T04:57:54;101051.84;;;15.60;81.78
27587;BME280;15019;49.002;8.420;2022-07-17T05:00:20;101063.81;;;15.58;80.95
27587;BME280;15019;49.002;8.420;2022-07-17T05:02:45;101062.06;;;15.63;80.07
27587;BME280;15019;49.002;8.420;2022-07-17T05:05:11;101068.03;;;15.65;79.87
27587;BME280;15019;49.002;8.420;2022-07-17T05:07:36;101065.41;;;15.71;80.11
27587;BME280;15019;49.002;8.420;2022-07-17T05:10:02;101061.09;;;15.78;78.48
27587;BME280;15019;49.002;8.420;2022-07-17T05:12:27;101072.09;;;15.85;78.79
27587;BME280;15019;49.002;8.420;2022-07-17T05:14:52;101074.56;;;15.95;77.53
27587;BME280;15019;49.002;8.420;2022-07-17T05:17:18;101074.50;;;16.01;77.54
27587;BME280;15019;49.002;8.420;2022-07-17T05:19:43;101068.41;;;16.15;77.08
27587;BME280;15019;49.002;8.420;2022-07-17T05:22:08;101063.25;;;16.19;75.95
27587;BME280;15019;49.002;8.420;2022-07-17T05:24:34;101068.19;;;16.33;74.96
27587;BME280;15019;49.002;8.420;2022-07-17T05:27:00;101069.03;;;16.33;72.51
27587;BME280;15019;49.002;8.420;2022-07-17T05:29:25;101073.13;;;16.50;72.45
27587;BME280;15019;49.002;8.420;2022-07-17T05:31:51;101075.53;;;16.63;71.62
27587;BME280;15019;49.002;8.420;2022-07-17T05:34:16;101077.09;;;16.76;70.71
27587;BME280;15019;49.002;8.420;2022-07-17T05:36:41;101077.03;;;16.82;70.58
27587;BME280;15019;49.002;8.420;2022-07-17T05:39:07;101081.13;;;16.94;70.71
27587;BME280;15019;49.002;8.420;2022-07-17T05:41:32;101079.22;;;17.08;69.25
27587;BME280;15019;49.002;8.420;2022-07-17T05:43:57;101082.31;;;17.29;68.48
27587;BME280;15019;49.002;8.420;2022-07-17T05:46:23;101084.81;;;17.35;67.61
27587;BME280;15019;49.002;8.420;2022-07-17T05:48:48;101088.81;;;17.51;67.76
27587;BME280;15019;49.002;8.420;2022-07-17T05:51:13;101086.72;;;17.77;66.21
27587;BME280;15019;49.002;8.420;2022-07-17T05:53:39;101080.03;;;18.16;66.56
27587;BME280;15019;49.002;8.420;2022-07-17T05:56:04;101087.47;;;18.30;64.13
27587;BME280;15019;49.002;8.420;2022-07-17T05:58:29;101090.66;;;18.43;62.74
27587;BME280;15019;49.002;8.420;2022-07-17T06:00:55;101088.66;;;18.58;60.79
27587;BME280;15019;49.002;8.420;2022-07-17T06:03:20;101084.69;;;18.84;61.94
27587;BME280;15019;49.002;8.420;2022-07-17T06:05:45;101083.94;;;18.34;60.18
27587;BME280;15019;49.002;8.420;2022-07-17T06:08:11;101090.50;;;18.06;61.18
27587;BME280;15019;49.002;8.420;2022-07-17T06:10:36;101087.97;;;18.03;63.24
27587;BME280;15019;49.002;8.420;2022-07-17T06:13:01;101087.06;;;18.07;61.61
27587;BME280;15019;49.002;8.420;2022-07-17T06:15:27;101099.75;;;18.13;61.73
27587;BME280;15019;49.002;8.420;2022-07-17T06:17:52;101097.16;;;18.16;61.92
27587;BME280;15019;49.002;8.420;2022-07-17T06:20:18;101098.00;;;18.15;61.80
27587;BME280;15019;49.002;8.420;2022-07-17T06:22:44;101089.44;;;18.16;61.28
27587;BME280;15019;49.002;8.420;2022-07-17T06:25:11;101091.66;;;18.34;63.50
27587;BME280;15019;49.002;8.420;2022-07-17T06:27:41;101099.06;;;18.49;61.54
27587;BME280;15019;49.002;8.420;2022-07-17T06:30:09;101102.19;;;18.67;61.63
27587;BME280;15019;49.002;8.420;2022-07-17T06:32:35;101100.13;;;18.84;61.62
27587;BME280;15019;49.002;8.420;2022-07-17T06:35:00;101103.69;;;18.77;60.44
27587;BME280;15019;49.002;8.420;2022-07-17T06:37:25;101105.06;;;18.93;59.68
27587;BME280;15019;49.002;8.420;2022-07-17T06:39:51;101109.72;;;19.14;60.49
27587;BME280;15019;49.002;8.420;2022-07-17T06:42:16;101106.13;;;19.21;59.19
27587;BME280;15019;49.002;8.420;2022-07-17T06:44:41;101108.28;;;19.39;58.03
27587;BME280;15019;49.002;8.420;2022-07-17T06:47:07;101109.09;;;19.79;56.36
27587;BME280;15019;49.002;8.420;2022-07-17T06:49:32;101119.94;;;19.91;55.82
27587;BME280;15019;49.002;8.420;2022-07-17T06:51:58;101114.13;;;20.16;54.80
27587;BME280;15019;49.002;8.420;2022-07-17T06:54:23;101109.75;;;20.19;54.58
27587;BME280;15019;49.002;8.420;2022-07-17T06:56:49;101112.97;;;20.27;54.78
27587;BME280;15019;49.002;8.420;2022-07-17T06:59:14;101118.44;;;20.48;53.63
27587;BME280;15019;49.002;8.420;2022-07-17T07:01:40;101123.72;;;21.03;52.30
27587;BME280;15019;49.002;8.420;2022-07-17T07:04:05;101122.25;;;20.65;52.00
27587;BME280;15019;49.002;8.420;2022-07-17T07:06:30;101120.13;;;20.79;55.91
27587;BME280;15019;49.002;8.420;2022-07-17T07:08:56;101118.91;;;20.91;52.00
27587;BME280;15019;49.002;8.420;2022-07-17T07:11:21;101116.75;;;21.07;52.05
27587;BME280;15019;49.002;8.420;2022-07-17T07:13:47;101125.13;;;21.41;50.08
27587;BME280;15019;49.002;8.420;2022-07-17T07:16:12;101122.00;;;21.84;50.36
27587;BME280;15019;49.002;8.420;2022-07-17T07:18:38;101122.28;;;22.03;48.71
27587;BME280;15019;49.002;8.420;2022-07-17T07:21:03;101122.69;;;22.41;46.90
27587;BME280;15019;49.002;8.420;2022-07-17T07:23:29;101122.00;;;23.06;45.05
27587;BME280;15019;49.002;8.420;2022-07-17T07:25:54;101120.81;;;23.58;44.42
27587;BME280;15019;49.002;8.420;2022-07-17T07:28:20;101117.91;;;23.22;45.08
27587;BME280;15019;49.002;8.420;2022-07-17T07:30:45;101120.78;;;23.80;44.49
27587;BME280;15019;49.002;8.420;2022-07-17T07:33:11;101124.41;;;23.76;43.34
27587;BME280;15019;49.002;8.420;2022-07-17T07:35:36;101115.34;;;23.86;44.07
27587;BME280;15019;49.002;8.420;2022-07-17T07:38:02;101115.09;;;24.32;43.08
27587;BME280;15019;49.002;8.420;2022-07-17T07:40:28;101116.28;;;25.38;44.38
27587;BME280;15019;49.002;8.420;2022-07-17T07:42:54;101121.66;;;25.16;40.60
27587;BME280;15019;49.002;8.420;2022-07-17T07:45:19;101121.19;;;25.08;40.60
27587;BME280;15019;49.002;8.420;2022-07-17T07:47:47;101117.63;;;24.90;40.53
27587;BME280;15019;49.002;8.420;2022-07-17T07:50:13;101120.91;;;25.67;43.47
27587;BME280;15019;49.002;8.420;2022-07-17T07:52:40;101121.47;;;26.24;41.92
27587;BME280;15019;49.002;8.420;2022-07-17T07:55:06;101120.09;;;26.83;39.39
27587;BME280;15019;49.002;8.420;2022-07-17T07:57:31;101122.28;;;26.75;37.32
27587;BME280;15019;49.002;8.420;2022-07-17T07:59:57;101127.44;;;26.43;37.89
27587;BME280;15019;49.002;8.420;2022-07-17T08:02:22;101124.75;;;26.60;37.53
27587;BME280;15019;49.002;8.420;2022-07-17T08:04:48;101129.19;;;27.07;36.89
27587;BME280;15019;49.002;8.420;2022-07-17T08:07:14;101126.66;;;27.21;35.73
27587;BME280;15019;49.002;8.420;2022-07-17T08:09:39;101123.13;;;27.22;35.98
27587;BME280;15019;49.002;8.420;2022-07-17T08:12:05;101122.63;;;26.69;36.40
27587;BME280;15019;49.002;8.420;2022-07-17T08:14:30;101134.16;;;27.73;36.84
27587;BME280;15019;49.002;8.420;2022-07-17T08:16:56;101125.81;;;27.96;35.04
27587;BME280;15019;49.002;8.420;2022-07-17T08:19:21;101125.03;;;28.24;34.77
27587;BME280;15019;49.002;8.420;2022-07-17T08:21:46;101129.50;;;28.36;34.12
27587;BME280;15019;49.002;8.420;2022-07-17T08:24:12;101122.56;;;28.92;33.82
27587;BME280;15019;49.002;8.420;2022-07-17T08:26:37;101126.50;;;28.57;33.44
27587;BME280;15019;49.002;8.420;2022-07-17T08:29:02;101119.69;;;28.40;34.47
27587;BME280;15019;49.002;8.420;2022-07-17T08:31:28;101126.81;;;29.07;33.51
27587;BME280;15019;49.002;8.420;2022-07-17T08:33:53;101121.78;;;29.71;32.99
27587;BME280;15019;49.002;8.420;2022-07-17T08:36:18;101127.00;;;29.58;32.43
27587;BME280;15019;49.002;8.420;2022-07-17T08:38:44;101136.66;;;28.90;32.30
27587;BME280;15019;49.002;8.420;2022-07-17T08:41:09;101127.91;;;28.48;33.52
27587;BME280;15019;49.002;8.420;2022-07-17T08:43:34;101127.72;;;28.51;32.61
27587;BME280;15019;49.002;8.420;2022-07-17T08:46:00;101122.34;;;28.95;32.75
27587;BME280;15019;49.002;8.420;2022-07-17T08:48:26;101123.94;;;29.25;32.19
27587;BME280;15019;49.002;8.420;2022-07-17T08:50:52;101120.03;;;29.84;31.13
27587;BME280;15019;49.002;8.420;2022-07-17T08:53:17;101131.03;;;30.65;30.83
27587;BME280;15019;49.002;8.420;2022-07-17T08:55:43;101133.25;;;30.20;30.21
27587;BME280;15019;49.002;8.420;2022-07-17T08:58:14;101123.31;;;30.13;30.64
27587;BME280;15019;49.002;8.420;2022-07-17T09:00:39;101129.50;;;30.86;30.19
27587;BME280;15019;49.002;8.420;2022-07-17T09:03:08;101126.00;;;30.62;30.21
27587;BME280;15019;49.002;8.420;2022-07-17T09:05:35;101131.34;;;30.97;29.79
27587;BME280;15019;49.002;8.420;2022-07-17T09:08:02;101129.50;;;30.86;31.09
27587;BME280;15019;49.002;8.420;2022-07-17T09:10:43;101137.19;;;31.48;31.00
27587;BME280;15019;49.002;8.420;2022-07-17T09:13:20;101136.69;;;31.32;28.87
27587;BME280;15019;49.002;8.420;2022-07-17T09:15:47;101130.38;;;31.70;29.97
27587;BME280;15019;49.002;8.420;2022-07-17T09:18:13;101120.53;;;31.49;28.26
27587;BME280;15019;49.002;8.420;2022-07-17T09:20:53;101123.34;;;32.39;27.99
27587;BME280;15019;49.002;8.420;2022-07-17T09:23:20;101122.38;;;32.62;29.01
27587;BME280;15019;49.002;8.420;2022-07-17T09:25:52;101119.75;;;32.62;27.20
27587;BME280;15019;49.002;8.420;2022-07-17T09:28:18;101121.84;;;31.90;28.71
27587;BME280;15019;49.002;8.420;2022-07-17T09:30:53;101118.25;;;31.91;27.76
27587;BME280;15019;49.002;8.420;2022-07-17T09:33:23;101124.13;;;31.59;27.43
27587;BME280;15019;49.002;8.420;2022-07-17T09:36:07;101124.81;;;31.50;28.24
27587;BME280;15019;49.002;8.420;2022-07-17T09:38:38;101118.38;;;31.43;27.88
27587;BME280;15019;49.002;8.420;2022-07-17T09:41:12;101109.16;;;32.30;26.43
27587;BME280;15019;49.002;8.420;2022-07-17T09:43:58;101110.63;;;32.88;27.17
27587;BME280;15019;49.002;8.420;2022-07-17T09:46:30;101124.75;;;32.43;26.22
27587;BME280;15019;49.002;8.420;2022-07-17T09:49:06;101114.50;;;32.73;27.10
27587;BME280;15019;49.002;8.420;2022-07-17T09:51:35;101106.78;;;33.03;25.94
27587;BME280;15019;49.002;8.420;2022-07-17T09:54:02;101110.41;;;32.91;26.11
27587;BME280;15019;49.002;8.420;2022-07-17T09:56:30;101093.25;;;32.43;28.19
27587;BME280;15019;49.002;8.420;2022-07-17T09:59:01;101111.16;;;32.15;26.26
27587;BME280;15019;49.002;8.420;2022-07-17T10:01:27;101096.34;;;32.14;26.25
27587;BME280;15019;49.002;8.420;2022-07-17T10:03:52;101095.38;;;31.93;25.83
27587;BME280;15019;49.002;8.420;2022-07-17T10:06:18;101092.31;;;32.32;26.17
27587;BME280;15019;49.002;8.420;2022-07-17T10:08:43;101093.28;;;32.20;25.83
27587;BME280;15019;49.002;8.420;2022-07-17T10:11:09;101090.63;;;32.09;25.31
27587;BME280;15019;49.002;8.420;2022-07-17T10:13:36;101096.13;;;32.06;25.68
27587;BME280;15019;49.002;8.420;2022-07-17T10:16:04;101095.66;;;32.34;26.13
27587;BME280;15019;49.002;8.420;2022-07-17T10:18:40;101087.53;;;33.03;24.60
27587;BME280;15019;49.002;8.420;2022-07-17T10:21:14;101093.69;;;32.70;26.75
27587;BME280;15019;49.002;8.420;2022-07-17T10:23:43;101086.72;;;33.02;26.03
27587;BME280;15019;49.002;8.420;2022-07-17T10:26:11;101078.38;;;33.29;25.77
27587;BME280;15019;49.002;8.420;2022-07-17T10:28:45;101092.28;;;32.77;24.58
27587;BME280;15019;49.002;8.420;2022-07-17T10:31:25;101089.56;;;31.54;25.15
27587;BME280;15019;49.002;8.420;2022-07-17T10:33:59;101080.34;;;31.84;24.71
27587;BME280;15019;49.002;8.420;2022-07-17T10:36:54;101079.41;;;32.63;24.13
27587;BME280;15019;49.002;8.420;2022-07-17T10:39:20;101075.69;;;33.08;24.38
27587;BME280;15019;49.002;8.420;2022-07-17T10:42:01;101076.06;;;32.72;23.41
27587;BME280;15019;49.002;8.420;2022-07-17T10:44:28;101077.03;;;32.71;26.07
27587;BME280;15019;49.002;8.420;2022-07-17T10:46:55;101076.81;;;33.27;23.03
27587;BME280;15019;49.002;8.420;2022-07-17T10:49:22;101080.69;;;33.43;22.81
27587;BME280;15019;49.002;8.420;2022-07-17T10:51:48;101082.38;;;32.81;22.93
27587;BME280;15019;49.002;8.420;2022-07-17T10:54:13;101084.88;;;33.46;23.44
27587;BME280;15019;49.002;8.420;2022-07-17T10:56:39;101088.69;;;32.78;23.72
27587;BME280;15019;49.002;8.420;2022-07-17T10:59:06;101081.44;;;33.02;24.33
27587;BME280;15019;49.002;8.420;2022-07-17T11:01:31;101079.44;;;33.27;23.97
27587;BME280;15019;49.002;8.420;2022-07-17T11:03:58;101076.38;;;33.63;24.24
27587;BME280;15019;49.002;8.420;2022-07-17T11:06:35;101070.84;;;32.39;23.51
27587;BME280;15019;49.002;8.420;2022-07-17T11:09:05;101080.94;;;32.77;23.95
27587;BME280;15019;49.002;8.420;2022-07-17T11:11:45;101070.59;;;33.69;24.88
27587;BME280;15019;49.002;8.420;2022-07-17T11:14:13;101077.94;;;33.87;23.29
27587;BME280;15019;49.002;8.420;2022-07-17T11:16:51;101074.38;;;31.71;23.55
27587;BME280;15019;49.002;8.420;2022-07-17T11:21:53;101068.09;;;31.49;24.83
27587;BME280;15019;49.002;8.420;2022-07-17T11:24:19;101070.34;;;32.00;24.06
27587;BME280;15019;49.002;8.420;2022-07-17T11:26:49;101074.88;;;31.87;23.48
27587;BME280;15019;49.002;8.420;2022-07-17T11:29:14;101073.16;;;32.75;23.09
27587;BME280;15019;49.002;8.420;2022-07-17T11:31:40;101068.94;;;32.18;23.32
27587;BME280;15019;49.002;8.420;2022-07-17T11:34:07;101053.44;;;31.12;24.08
27587;BME280;15019;49.002;8.420;2022-07-17T11:36:34;101050.25;;;30.96;26.39
27587;BME280;15019;49.002;8.420;2022-07-17T11:39:02;101051.50;;;32.51;23.92
27587;BME280;15019;49.002;8.420;2022-07-17T11:41:37;101053.81;;;33.08;24.91
27587;BME280;15019;49.002;8.420;2022-07-17T11:44:05;101051.53;;;32.17;23.50
27587;BME280;15019;49.002;8.420;2022-07-17T11:46:31;101049.09;;;32.03;23.75
27587;BME280;15019;49.002;8.420;2022-07-17T11:48:57;101064.19;;;30.72;23.03
27587;BME280;15019;49.002;8.420;2022-07-17T11:51:33;101060.06;;;30.81;23.43
27587;BME280;15019;49.002;8.420;2022-07-17T11:54:04;101063.00;;;30.40;22.72
27587;BME280;15019;49.002;8.420;2022-07-17T11:56:29;101058.59;;;31.13;23.48
27587;BME280;15019;49.002;8.420;2022-07-17T11:58:55;101045.34;;;30.67;24.48
27587;BME280;15019;49.002;8.420;2022-07-17T12:01:20;101049.28;;;30.73;23.62
27587;BME280;15019;49.002;8.420;2022-07-17T12:03:56;101046.31;;;31.14;23.37
27587;BME280;15019;49.002;8.420;2022-07-17T12:06:25;101047.78;;;31.29;23.51
27587;BME280;15019;49.002;8.420;2022-07-17T12:08:51;101046.47;;;31.00;23.44
27587;BME280;15019;49.002;8.420;2022-07-17T12:11:16;101045.44;;;30.66;23.75
27587;BME280;15019;49.002;8.420;2022-07-17T12:13:43;101053.09;;;30.69;23.57
27587;BME280;15019;49.002;8.420;2022-07-17T12:16:23;101048.53;;;30.47;22.36
27587;BME280;15019;49.002;8.420;2022-07-17T12:19:02;101050.69;;;30.16;22.50
27587;BME280;15019;49.002;8.420;2022-07-17T12:21:28;101056.34;;;30.10;22.10
27587;BME280;15019;49.002;8.420;2022-07-17T12:24:05;101058.31;;;29.94;22.12
27587;BME280;15019;49.002;8.420;2022-07-17T12:26:33;101044.19;;;29.71;22.28
27587;BME280;15019;49.002;8.420;2022-07-17T12:28:59;101046.50;;;29.76;23.17
27587;BME280;15019;49.002;8.420;2022-07-17T12:31:25;101045.25;;;29.94;23.13
27587;BME280;15019;49.002;8.420;2022-07-17T12:33:52;101045.06;;;29.97;22.99
27587;BME280;15019;49.002;8.420;2022-07-17T12:36:22;101037.91;;;30.12;23.23
27587;BME280;15019;49.002;8.420;2022-07-17T12:38:47;101034.97;;;29.91;23.80
27587;BME280;15019;49.002;8.420;2022-07-17T12:41:13;101032.50;;;29.64;24.43
27587;BME280;15019;49.002;8.420;2022-07-17T12:43:38;101034.06;;;29.27;23.64
27587;BME280;15019;49.002;8.420;2022-07-17T12:46:03;101028.09;;;29.65;24.57
27587;BME280;15019;49.002;8.420;2022-07-17T12:48:29;101027.03;;;29.93;23.33
27587;BME280;15019;49.002;8.420;2022-07-17T12:50:54;101029.25;;;29.86;22.55